Time,TemperatureF,DewpointF,PressureIn,WindDirection,WindDirectionDegrees,WindSpeedMPH,WindSpeedGustMPH,Humidity,HourlyPrecipIn,Conditions,Clouds,dailyrainin,SoftwareType,DateUTC
2013-01-22 07:15:00,45.1,28.5,30.19,South,175,3.0,3.0,52,0.00,,,0.00,Wunderground v.1.15,2013-01-22 14:15:00,
2013-01-22 07:25:00,44.5,28.9,30.20,South,175,2.0,2.0,54,0.00,,,0.00,Wunderground v.1.15,2013-01-22 14:25:00,
2013-01-22 07:30:00,45.5,29.3,30.20,South,175,1.0,2.0,53,0.00,,,0.00,Wunderground v.1.15,2013-01-22 14:30:00,
2013-01-22 07:35:00,46.2,29.1,30.20,South,175,1.0,2.0,51,0.00,,,0.00,Wunderground v.1.15,2013-01-22 14:35:00,
2013-01-22 07:40:00,46.2,29.1,30.20,South,175,2.0,2.0,51,0.00,,,0.00,Wunderground v.1.15,2013-01-22 14:40:00,
2013-01-22 07:45:00,46.1,29.4,30.20,South,175,2.0,2.0,52,0.00,,,0.00,Wunderground v.1.15,2013-01-22 14:45:00,
2013-01-22 07:55:00,47.9,29.1,30.20,South,175,0.0,0.0,48,0.00,,,0.00,Wunderground v.1.15,2013-01-22 14:55:00,
2013-01-22 08:00:00,49.5,30.6,30.20,South,175,0.0,4.0,48,0.00,,,0.00,Wunderground v.1.15,2013-01-22 15:00:00,
2013-01-22 08:05:00,50.1,30.6,30.20,South,175,1.0,4.0,47,0.00,,,0.00,Wunderground v.1.15,2013-01-22 15:05:00,
2013-01-22 08:15:00,52.0,30.7,30.21,South,175,2.0,2.0,44,0.00,,,0.00,Wunderground v.1.15,2013-01-22 15:15:00,
2013-01-22 08:20:00,52.8,31.5,30.21,South,175,2.0,2.0,44,0.00,,,0.00,Wunderground v.1.15,2013-01-22 15:20:00,
2013-01-22 08:30:00,54.1,30.9,30.21,South,175,1.0,1.0,41,0.00,,,0.00,Wunderground v.1.15,2013-01-22 15:30:00,
2013-01-22 08:35:00,54.8,30.9,30.21,South,175,1.0,1.0,40,0.00,,,0.00,Wunderground v.1.15,2013-01-22 15:35:00,
2013-01-22 08:40:00,55.7,30.5,30.21,South,175,1.0,1.0,38,0.00,,,0.00,Wunderground v.1.15,2013-01-22 15:40:00,
2013-01-22 08:45:00,56.6,30.6,30.21,South,175,0.0,1.0,37,0.00,,,0.00,Wunderground v.1.15,2013-01-22 15:45:00,
2013-01-22 08:50:00,57.8,31.0,30.22,South,175,0.0,0.0,36,0.00,,,0.00,Wunderground v.1.15,2013-01-22 15:50:00,
2013-01-22 09:00:00,58.7,29.6,30.21,South,175,0.0,0.0,33,0.00,,,0.00,Wunderground v.1.15,2013-01-22 16:00:00,
2013-01-22 09:05:00,59.2,30.8,30.21,South,175,0.0,0.0,34,0.00,,,0.00,Wunderground v.1.15,2013-01-22 16:05:00,
2013-01-22 09:15:00,59.0,30.6,30.21,South,175,2.0,5.0,34,0.00,,,0.00,Wunderground v.1.15,2013-01-22 16:15:00,
2013-01-22 09:20:00,59.0,29.9,30.22,South,175,3.0,3.0,33,0.00,,,0.00,Wunderground v.1.15,2013-01-22 16:20:00,
2013-01-22 09:25:00,59.5,28.8,30.22,South,175,3.0,3.0,31,0.00,,,0.00,Wunderground v.1.15,2013-01-22 16:25:00,
2013-01-22 09:30:00,60.2,29.4,30.22,South,175,2.0,2.0,31,0.00,,,0.00,Wunderground v.1.15,2013-01-22 16:30:00,
2013-01-22 09:40:00,61.2,29.5,30.22,South,175,2.0,4.0,30,0.00,,,0.00,Wunderground v.1.15,2013-01-22 16:40:00,
2013-01-22 09:45:00,61.6,29.0,30.22,South,172,3.0,5.0,29,0.00,,,0.00,Wunderground v.1.15,2013-01-22 16:45:00,
2013-01-22 09:50:00,61.8,27.4,30.22,SE,132,4.0,5.0,27,0.00,,,0.00,Wunderground v.1.15,2013-01-22 16:50:00,
2013-01-22 09:55:00,62.1,27.7,30.23,East,96,4.0,6.0,27,0.00,,,0.00,Wunderground v.1.15,2013-01-22 16:55:00,
2013-01-22 10:00:00,62.6,27.2,30.23,East,96,4.0,5.0,26,0.00,,,0.00,Wunderground v.1.15,2013-01-22 17:00:00,
2013-01-22 10:05:00,62.6,29.0,30.23,East,96,4.0,5.0,28,0.00,,,0.00,Wunderground v.1.15,2013-01-22 17:05:00,
2013-01-22 10:15:00,62.9,28.4,30.23,East,96,3.0,6.0,27,0.00,,,0.00,Wunderground v.1.15,2013-01-22 17:15:00,
2013-01-22 10:20:00,63.5,28.9,30.23,East,95,3.0,4.0,27,0.00,,,0.00,Wunderground v.1.15,2013-01-22 17:20:00,
2013-01-22 10:25:00,63.7,29.1,30.23,East,95,3.0,4.0,27,0.00,,,0.00,Wunderground v.1.15,2013-01-22 17:25:00,
2013-01-22 10:35:00,64.0,29.3,30.23,ENE,64,3.0,3.0,27,0.00,,,0.00,Wunderground v.1.15,2013-01-22 17:35:00,
2013-01-22 15:15:00,67.8,22.7,30.14,East,81,3.0,7.0,18,0.00,,,0.00,Wunderground v.1.15,2013-01-22 22:15:00,
2013-01-22 15:20:00,67.8,24.0,30.14,East,96,4.0,7.0,19,0.00,,,0.00,Wunderground v.1.15,2013-01-22 22:20:00,
2013-01-22 15:25:00,67.8,22.7,30.14,East,97,4.0,4.0,18,0.00,,,0.00,Wunderground v.1.15,2013-01-22 22:25:00,
2013-01-22 15:30:00,68.3,21.8,30.14,East,97,3.0,7.0,17,0.00,,,0.00,Wunderground v.1.15,2013-01-22 22:30:00,
2013-01-22 15:35:00,67.9,22.8,30.14,East,95,3.0,3.0,18,0.00,,,0.00,Wunderground v.1.15,2013-01-22 22:35:00,
2013-01-22 15:45:00,67.8,21.4,30.14,East,99,4.0,7.0,17,0.00,,,0.00,Wunderground v.1.15,2013-01-22 22:45:00,
2013-01-22 15:50:00,67.8,19.9,30.14,East,101,4.0,7.0,16,0.00,,,0.00,Wunderground v.1.15,2013-01-22 22:50:00,
2013-01-22 15:55:00,67.8,19.9,30.14,East,101,3.0,3.0,16,0.00,,,0.00,Wunderground v.1.15,2013-01-22 22:55:00,
2013-01-22 16:00:00,67.6,22.5,30.14,ESE,105,3.0,7.0,18,0.00,,,0.00,Wunderground v.1.15,2013-01-22 23:00:00,
2013-01-22 16:05:00,67.4,22.4,30.14,ESE,102,4.0,7.0,18,0.00,,,0.00,Wunderground v.1.15,2013-01-22 23:05:00,
2013-01-22 16:15:00,67.3,23.6,30.14,ESE,123,6.0,7.0,19,0.00,,,0.00,Wunderground v.1.15,2013-01-22 23:15:00,
2013-01-22 16:20:00,67.4,23.7,30.14,ESE,123,3.0,3.0,19,0.00,,,0.00,Wunderground v.1.15,2013-01-22 23:20:00,
2013-01-22 16:25:00,67.4,23.7,30.14,SE,124,3.0,5.0,19,0.00,,,0.00,Wunderground v.1.15,2013-01-22 23:25:00,
2013-01-22 16:30:00,67.3,23.6,30.14,SE,124,3.0,3.0,19,0.00,,,0.00,Wunderground v.1.15,2013-01-22 23:30:00,
2013-01-22 16:35:00,67.1,22.1,30.14,SE,124,3.0,3.0,18,0.00,,,0.00,Wunderground v.1.15,2013-01-22 23:35:00,
2013-01-22 16:45:00,66.9,23.3,30.14,SE,124,2.0,2.0,19,0.00,,,0.00,Wunderground v.1.15,2013-01-22 23:45:00,
2013-01-22 16:50:00,66.6,23.0,30.14,SE,124,3.0,7.0,19,0.00,,,0.00,Wunderground v.1.15,2013-01-22 23:50:00,
2013-01-22 16:55:00,66.4,22.8,30.14,SE,124,3.0,3.0,19,0.00,,,0.00,Wunderground v.1.15,2013-01-22 23:55:00,
2013-01-22 17:00:00,66.6,23.0,30.14,SE,124,2.0,2.0,19,0.00,,,0.00,Wunderground v.1.15,2013-01-23 00:00:00,
2013-01-22 17:05:00,65.3,25.4,30.14,SE,128,2.0,4.0,22,0.00,,,0.00,Wunderground v.1.15,2013-01-23 00:05:00,
2013-01-22 17:15:00,60.1,25.1,30.14,SE,144,6.0,6.0,26,0.00,,,0.00,Wunderground v.1.15,2013-01-23 00:15:00,
2013-01-22 17:20:00,59.5,25.5,30.15,SE,146,6.0,6.0,27,0.00,,,0.00,Wunderground v.1.15,2013-01-23 00:20:00,
2013-01-22 17:25:00,58.9,24.9,30.14,SE,146,6.0,6.0,27,0.00,,,0.00,Wunderground v.1.15,2013-01-23 00:25:00,
2013-01-22 17:30:00,58.1,25.1,30.14,SE,146,6.0,6.0,28,0.00,,,0.00,Wunderground v.1.15,2013-01-23 00:30:00,
2013-01-22 17:35:00,57.5,23.7,30.14,SSE,148,6.0,6.0,27,0.00,,,0.00,Wunderground v.1.15,2013-01-23 00:35:00,
2013-01-22 17:40:00,56.6,24.7,30.15,SSE,148,6.0,7.0,29,0.00,,,0.00,Wunderground v.1.15,2013-01-23 00:40:00,
2013-01-22 17:45:00,56.2,24.3,30.15,SSE,148,6.0,7.0,29,0.00,,,0.00,Wunderground v.1.15,2013-01-23 00:45:00,
2013-01-22 17:50:00,55.9,24.9,30.15,SSE,148,6.0,6.0,30,0.00,,,0.00,Wunderground v.1.15,2013-01-23 00:50:00,
2013-01-22 17:55:00,55.6,24.6,30.15,SSE,148,6.0,6.0,30,0.00,,,0.00,Wunderground v.1.15,2013-01-23 00:55:00,
2013-01-22 18:05:00,55.4,24.4,30.15,SSE,149,6.0,6.0,30,0.00,,,0.00,Wunderground v.1.15,2013-01-23 01:05:00,
2013-01-22 18:10:00,55.1,24.2,30.15,SSE,149,7.0,7.0,30,0.00,,,0.00,Wunderground v.1.15,2013-01-23 01:10:00,
2013-01-22 18:15:00,55.0,24.9,30.15,SSE,152,7.0,7.0,31,0.00,,,0.00,Wunderground v.1.15,2013-01-23 01:15:00,
2013-01-22 18:20:00,54.8,24.7,30.15,SSE,166,6.0,6.0,31,0.00,,,0.00,Wunderground v.1.15,2013-01-23 01:20:00,
2013-01-22 18:25:00,54.8,24.7,30.15,SSE,166,6.0,7.0,31,0.00,,,0.00,Wunderground v.1.15,2013-01-23 01:25:00,
2013-01-22 18:30:00,54.2,24.9,30.15,South,169,6.0,6.0,32,0.00,,,0.00,Wunderground v.1.15,2013-01-23 01:30:00,
2013-01-22 18:40:00,53.6,24.4,30.16,South,169,6.0,6.0,32,0.00,,,0.00,Wunderground v.1.15,2013-01-23 01:40:00,
2013-01-22 18:45:00,53.3,24.9,30.16,South,169,5.0,6.0,33,0.00,,,0.00,Wunderground v.1.15,2013-01-23 01:45:00,
2013-01-22 18:50:00,53.2,24.8,30.16,South,169,5.0,5.0,33,0.00,,,0.00,Wunderground v.1.15,2013-01-23 01:50:00,
2013-01-22 19:00:00,53.2,25.5,30.16,South,169,6.0,6.0,34,0.00,,,0.00,Wunderground v.1.15,2013-01-23 02:00:00,
2013-01-22 19:05:00,54.4,24.4,30.16,South,170,6.0,6.0,31,0.00,,,0.00,Wunderground v.1.15,2013-01-23 02:05:00,
2013-01-22 19:15:00,56.9,24.1,30.17,South,172,6.0,7.0,28,0.00,,,0.00,Wunderground v.1.15,2013-01-23 02:15:00,
2013-01-22 19:20:00,57.2,24.3,30.17,South,173,6.0,6.0,28,0.00,,,0.00,Wunderground v.1.15,2013-01-23 02:20:00,
2013-01-22 19:25:00,57.3,24.4,30.17,South,174,6.0,7.0,28,0.00,,,0.00,Wunderground v.1.15,2013-01-23 02:25:00,
2013-01-22 19:30:00,57.5,24.6,30.17,South,177,6.0,6.0,28,0.00,,,0.00,Wunderground v.1.15,2013-01-23 02:30:00,
2013-01-22 19:35:00,57.5,24.6,30.16,South,178,6.0,6.0,28,0.00,,,0.00,Wunderground v.1.15,2013-01-23 02:35:00,
2013-01-22 19:40:00,57.3,24.4,30.17,South,180,6.0,6.0,28,0.00,,,0.00,Wunderground v.1.15,2013-01-23 02:40:00,
2013-01-22 19:45:00,57.2,24.3,30.17,South,182,5.0,6.0,28,0.00,,,0.00,Wunderground v.1.15,2013-01-23 02:45:00,
2013-01-22 19:55:00,56.6,25.5,30.17,South,190,5.0,5.0,30,0.00,,,0.00,Wunderground v.1.15,2013-01-23 02:55:00,
2013-01-22 20:00:00,55.9,25.7,30.17,South,190,5.0,5.0,31,0.00,,,0.00,Wunderground v.1.15,2013-01-23 03:00:00,
2013-01-22 20:05:00,54.4,25.9,30.17,South,191,4.0,6.0,33,0.00,,,0.00,Wunderground v.1.15,2013-01-23 03:05:00,
2013-01-22 20:15:00,54.2,25.7,30.17,South,191,4.0,4.0,33,0.00,,,0.00,Wunderground v.1.15,2013-01-23 03:15:00,
2013-01-22 20:25:00,55.4,25.2,30.18,SSW,193,5.0,7.0,31,0.00,,,0.00,Wunderground v.1.15,2013-01-23 03:25:00,
2013-01-22 20:30:00,56.0,25.0,30.18,SSW,194,5.0,5.0,30,0.00,,,0.00,Wunderground v.1.15,2013-01-23 03:30:00,
2013-01-22 20:35:00,56.3,24.4,30.18,South,188,4.0,5.0,29,0.00,,,0.00,Wunderground v.1.15,2013-01-23 03:35:00,
2013-01-22 20:40:00,56.7,24.8,30.18,SSW,202,5.0,5.0,29,0.00,,,0.00,Wunderground v.1.15,2013-01-23 03:40:00,
2013-01-22 20:45:00,56.7,24.8,30.18,SSW,196,5.0,5.0,29,0.00,,,0.00,Wunderground v.1.15,2013-01-23 03:45:00,
2013-01-22 20:50:00,56.6,24.7,30.18,SSW,198,5.0,5.0,29,0.00,,,0.00,Wunderground v.1.15,2013-01-23 03:50:00,
2013-01-22 21:00:00,56.5,23.7,30.18,SSW,202,5.0,5.0,28,0.00,,,0.00,Wunderground v.1.15,2013-01-23 04:00:00,
2013-01-22 21:05:00,56.3,23.6,30.19,SSW,204,5.0,5.0,28,0.00,,,0.00,Wunderground v.1.15,2013-01-23 04:05:00,
2013-01-22 21:15:00,56.0,22.4,30.19,SSW,206,5.0,7.0,27,0.00,,,0.00,Wunderground v.1.15,2013-01-23 04:15:00,
2013-01-22 21:20:00,56.9,23.2,30.19,SSW,206,5.0,5.0,27,0.00,,,0.00,Wunderground v.1.15,2013-01-23 04:20:00,
2013-01-22 21:30:00,53.0,26.0,30.19,West,273,4.0,4.0,35,0.00,,,0.00,Wunderground v.1.15,2013-01-23 04:30:00,
2013-01-22 21:35:00,52.7,25.8,30.19,SW,236,2.0,4.0,35,0.00,,,0.00,Wunderground v.1.15,2013-01-23 04:35:00,
2013-01-22 21:40:00,52.5,25.6,30.19,WSW,250,1.0,1.0,35,0.00,,,0.00,Wunderground v.1.15,2013-01-23 04:40:00,
2013-01-22 21:45:00,52.3,26.1,30.19,West,273,1.0,2.0,36,0.00,,,0.00,Wunderground v.1.15,2013-01-23 04:45:00,
2013-01-22 21:50:00,52.2,26.0,30.19,WSW,257,2.0,2.0,36,0.00,,,0.00,Wunderground v.1.15,2013-01-23 04:50:00,
2013-01-22 21:55:00,52.5,26.3,30.20,WNW,283,2.0,2.0,36,0.00,,,0.00,Wunderground v.1.15,2013-01-23 04:55:00,
2013-01-22 22:05:00,52.0,25.8,30.20,West,275,2.0,2.0,36,0.00,,,0.00,Wunderground v.1.15,2013-01-23 05:05:00,
2013-01-22 22:15:00,52.0,25.8,30.20,West,263,2.0,2.0,36,0.00,,,0.00,Wunderground v.1.15,2013-01-23 05:15:00,
2013-01-22 22:20:00,51.8,25.7,30.20,West,267,2.0,3.0,36,0.00,,,0.00,Wunderground v.1.15,2013-01-23 05:20:00,
2013-01-22 22:25:00,52.1,25.9,30.21,West,271,2.0,3.0,36,0.00,,,0.00,Wunderground v.1.15,2013-01-23 05:25:00,
2013-01-22 22:30:00,51.6,26.1,30.21,ENE,76,1.0,1.0,37,0.00,,,0.00,Wunderground v.1.15,2013-01-23 05:30:00,
2013-01-22 22:40:00,49.8,26.4,30.21,WSW,242,2.0,2.0,40,0.00,,,0.00,Wunderground v.1.15,2013-01-23 05:40:00,
2013-01-22 22:45:00,48.8,25.5,30.21,WSW,256,2.0,2.0,40,0.00,,,0.00,Wunderground v.1.15,2013-01-23 05:45:00,
2013-01-22 22:50:00,47.8,26.4,30.21,West,268,1.0,2.0,43,0.00,,,0.00,Wunderground v.1.15,2013-01-23 05:50:00,
2013-01-22 22:55:00,48.0,26.5,30.21,West,277,2.0,3.0,43,0.00,,,0.00,Wunderground v.1.15,2013-01-23 05:55:00,
2013-01-22 23:05:00,48.6,26.5,30.21,West,267,2.0,2.0,42,0.00,,,0.00,Wunderground v.1.15,2013-01-23 06:05:00,
2013-01-22 23:15:00,48.9,26.8,30.21,WSW,250,2.0,2.0,42,0.00,,,0.00,Wunderground v.1.15,2013-01-23 06:15:00,
2013-01-22 23:20:00,49.0,26.9,30.21,WSW,249,2.0,2.0,42,0.00,,,0.00,Wunderground v.1.15,2013-01-23 06:20:00,
2013-01-22 23:25:00,49.7,27.5,30.21,SW,233,2.0,3.0,42,0.00,,,0.00,Wunderground v.1.15,2013-01-23 06:25:00,
2013-01-22 23:30:00,50.1,27.9,30.21,West,266,3.0,3.0,42,0.00,,,0.00,Wunderground v.1.15,2013-01-23 06:30:00,